CheckWX is a tool to help pilots better visualize weather data.  It is not intended as a substitute for an official pre-flight weather briefing.

05:15:56 UTC

D60 METAR
Tioga Municipal Airport
Tioga, North Dakota, USA
Current

21 mins ago

KD60 240455Z AUTO 32027G33KT 1 1/4SM -SN SCT007 M19/M20 A3010 RMK AO2
Observed
Feb-24 @ 04:55 UTC
Wind
  • 320° at 27 KTS
  • Gusting to 33 KTS
Visibility
1 1/4 SM
Flight Rules
IFR
Conditions
Light Snow
Cloud Levels
  • Scattered at 700' AGL
Temperature
-19°C / -2°F
Dewpoint
-20°C / -4°F
Humidity
92%
Altimeter
30.1" Hg
Pressure
1019.32 hPa
Previous

41 mins ago

KD60 240435Z AUTO 32026KT 1 3/4SM BR BKN007 M19/M20 A3010 RMK AO2
Observed
Feb-24 @ 04:35 UTC
Wind
  • 320° at 26 KTS
Visibility
1 3/4 SM
Flight Rules
IFR
Conditions
Mist
Cloud Levels
  • Broken at 700' AGL
Temperature
-19°C / -2°F
Dewpoint
-20°C / -4°F
Humidity
92%
Altimeter
30.1" Hg
Pressure
1019.32 hPa
Previous

1 hour ago

KD60 240415Z AUTO 32024G34KT 1 1/4SM -SN SCT007 M19/M20 A3009 RMK AO2
Observed
Feb-24 @ 04:15 UTC
Wind
  • 320° at 24 KTS
  • Gusting to 34 KTS
Visibility
1 1/4 SM
Flight Rules
IFR
Conditions
Light Snow
Cloud Levels
  • Scattered at 700' AGL
Temperature
-19°C / -2°F
Dewpoint
-20°C / -4°F
Humidity
92%
Altimeter
30.09" Hg
Pressure
1018.92 hPa